sensor_id;sensor_type;location;lat;lon;timestamp;temperature;humidity
2106;DHT22;1059;52.548;13.408;2023-06-26T00:00:13;22.20;99.90
2106;DHT22;1059;52.548;13.408;2023-06-26T00:02:44;22.20;99.90
2106;DHT22;1059;52.548;13.408;2023-06-26T00:05:10;22.10;99.90
2106;DHT22;1059;52.548;13.408;2023-06-26T00:07:39;22.10;99.90
2106;DHT22;1059;52.548;13.408;2023-06-26T00:10:06;22.00;99.90
2106;DHT22;1059;52.548;13.408;2023-06-26T00:12:34;22.00;99.90
2106;DHT22;1059;52.548;13.408;2023-06-26T00:15:01;22.00;99.90
2106;DHT22;1059;52.548;13.408;2023-06-26T00:17:28;22.00;99.90
2106;DHT22;1059;52.548;13.408;2023-06-26T00:19:58;21.90;99.90
2106;DHT22;1059;52.548;13.408;2023-06-26T00:22:25;21.90;99.90
2106;DHT22;1059;52.548;13.408;2023-06-26T00:24:51;21.80;99.90
2106;DHT22;1059;52.548;13.408;2023-06-26T00:27:18;21.80;99.90
2106;DHT22;1059;52.548;13.408;2023-06-26T00:29:46;21.80;99.90
2106;DHT22;1059;52.548;13.408;2023-06-26T00:32:13;21.80;99.90
2106;DHT22;1059;52.548;13.408;2023-06-26T00:34:40;21.80;99.90
2106;DHT22;1059;52.548;13.408;2023-06-26T00:37:07;21.80;99.90
2106;DHT22;1059;52.548;13.408;2023-06-26T00:39:34;21.80;99.90
2106;DHT22;1059;52.548;13.408;2023-06-26T00:42:01;21.80;99.90
2106;DHT22;1059;52.548;13.408;2023-06-26T00:44:28;21.70;99.90
2106;DHT22;1059;52.548;13.408;2023-06-26T00:46:56;21.80;99.90
2106;DHT22;1059;52.548;13.408;2023-06-26T00:49:26;21.70;99.90
2106;DHT22;1059;52.548;13.408;2023-06-26T00:51:54;21.70;99.90
2106;DHT22;1059;52.548;13.408;2023-06-26T00:54:27;21.70;99.90
2106;DHT22;1059;52.548;13.408;2023-06-26T00:56:54;21.70;99.90
2106;DHT22;1059;52.548;13.408;2023-06-26T00:59:21;21.70;99.90
2106;DHT22;1059;52.548;13.408;2023-06-26T01:01:48;21.70;99.90
2106;DHT22;1059;52.548;13.408;2023-06-26T01:04:16;21.70;99.90
2106;DHT22;1059;52.548;13.408;2023-06-26T01:06:45;21.70;99.90
2106;DHT22;1059;52.548;13.408;2023-06-26T01:09:16;21.70;99.90
2106;DHT22;1059;52.548;13.408;2023-06-26T01:11:44;21.70;99.90
2106;DHT22;1059;52.548;13.408;2023-06-26T01:14:11;21.70;99.90
2106;DHT22;1059;52.548;13.408;2023-06-26T01:16:38;21.70;99.90
2106;DHT22;1059;52.548;13.408;2023-06-26T01:19:10;21.70;99.90
2106;DHT22;1059;52.548;13.408;2023-06-26T01:21:43;21.70;99.90
2106;DHT22;1059;52.548;13.408;2023-06-26T01:24:16;21.70;99.90
2106;DHT22;1059;52.548;13.408;2023-06-26T01:26:49;21.70;99.90
2106;DHT22;1059;52.548;13.408;2023-06-26T01:29:17;21.70;99.90
2106;DHT22;1059;52.548;13.408;2023-06-26T01:31:45;21.70;99.90
2106;DHT22;1059;52.548;13.408;2023-06-26T01:34:15;21.70;99.90
2106;DHT22;1059;52.548;13.408;2023-06-26T01:36:44;21.70;99.90
2106;DHT22;1059;52.548;13.408;2023-06-26T01:39:12;21.70;99.90
2106;DHT22;1059;52.548;13.408;2023-06-26T01:41:39;21.70;99.90
2106;DHT22;1059;52.548;13.408;2023-06-26T01:44:16;21.60;99.90
2106;DHT22;1059;52.548;13.408;2023-06-26T01:46:53;21.60;99.90
2106;DHT22;1059;52.548;13.408;2023-06-26T01:49:25;21.60;99.90
2106;DHT22;1059;52.548;13.408;2023-06-26T01:52:01;21.60;99.90
2106;DHT22;1059;52.548;13.408;2023-06-26T01:54:30;21.60;99.90
2106;DHT22;1059;52.548;13.408;2023-06-26T01:57:00;21.60;99.90
2106;DHT22;1059;52.548;13.408;2023-06-26T01:59:29;21.60;99.90
2106;DHT22;1059;52.548;13.408;2023-06-26T02:01:57;21.60;99.90
2106;DHT22;1059;52.548;13.408;2023-06-26T02:04:24;21.60;99.90
2106;DHT22;1059;52.548;13.408;2023-06-26T02:06:51;21.60;99.90
2106;DHT22;1059;52.548;13.408;2023-06-26T02:09:20;21.60;99.90
2106;DHT22;1059;52.548;13.408;2023-06-26T02:11:47;21.60;99.90
2106;DHT22;1059;52.548;13.408;2023-06-26T02:14:14;21.60;99.90
2106;DHT22;1059;52.548;13.408;2023-06-26T02:16:42;21.60;99.90
2106;DHT22;1059;52.548;13.408;2023-06-26T02:19:09;21.60;99.90
2106;DHT22;1059;52.548;13.408;2023-06-26T02:21:35;21.60;99.90
2106;DHT22;1059;52.548;13.408;2023-06-26T02:24:04;21.60;99.90
2106;DHT22;1059;52.548;13.408;2023-06-26T02:26:31;21.60;99.90
2106;DHT22;1059;52.548;13.408;2023-06-26T02:28:58;21.60;99.90
2106;DHT22;1059;52.548;13.408;2023-06-26T02:31:25;21.50;99.90
2106;DHT22;1059;52.548;13.408;2023-06-26T02:33:53;21.50;99.90
2106;DHT22;1059;52.548;13.408;2023-06-26T02:36:20;21.50;99.90
2106;DHT22;1059;52.548;13.408;2023-06-26T02:38:47;21.50;99.90
2106;DHT22;1059;52.548;13.408;2023-06-26T02:41:14;21.50;99.90
2106;DHT22;1059;52.548;13.408;2023-06-26T02:43:40;21.40;99.90
2106;DHT22;1059;52.548;13.408;2023-06-26T02:46:07;21.40;99.90
2106;DHT22;1059;52.548;13.408;2023-06-26T02:48:34;21.30;99.90
2106;DHT22;1059;52.548;13.408;2023-06-26T02:51:02;21.30;99.90
2106;DHT22;1059;52.548;13.408;2023-06-26T02:53:30;21.30;99.90
2106;DHT22;1059;52.548;13.408;2023-06-26T02:55:57;21.30;99.90
2106;DHT22;1059;52.548;13.408;2023-06-26T02:58:24;21.30;99.90
2106;DHT22;1059;52.548;13.408;2023-06-26T03:00:51;21.20;99.90
2106;DHT22;1059;52.548;13.408;2023-06-26T03:03:19;21.20;99.90
2106;DHT22;1059;52.548;13.408;2023-06-26T03:05:46;21.20;99.90
2106;DHT22;1059;52.548;13.408;2023-06-26T03:08:14;21.20;99.90
2106;DHT22;1059;52.548;13.408;2023-06-26T03:10:44;21.20;99.90
2106;DHT22;1059;52.548;13.408;2023-06-26T03:13:11;21.10;99.90
2106;DHT22;1059;52.548;13.408;2023-06-26T03:15:37;21.10;99.90
2106;DHT22;1059;52.548;13.408;2023-06-26T03:18:04;21.00;99.90
2106;DHT22;1059;52.548;13.408;2023-06-26T03:20:31;21.00;99.90
2106;DHT22;1059;52.548;13.408;2023-06-26T03:22:58;21.00;99.90
2106;DHT22;1059;52.548;13.408;2023-06-26T03:25:26;21.00;99.90
2106;DHT22;1059;52.548;13.408;2023-06-26T03:27:53;21.00;99.90
2106;DHT22;1059;52.548;13.408;2023-06-26T03:30:23;21.00;99.90
2106;DHT22;1059;52.548;13.408;2023-06-26T03:32:49;21.00;99.90
2106;DHT22;1059;52.548;13.408;2023-06-26T03:35:16;21.00;99.90
2106;DHT22;1059;52.548;13.408;2023-06-26T03:37:43;21.00;99.90
2106;DHT22;1059;52.548;13.408;2023-06-26T03:40:10;21.00;99.90
2106;DHT22;1059;52.548;13.408;2023-06-26T03:42:38;20.90;99.90
2106;DHT22;1059;52.548;13.408;2023-06-26T03:45:06;20.90;99.90
2106;DHT22;1059;52.548;13.408;2023-06-26T03:47:33;20.90;99.90
2106;DHT22;1059;52.548;13.408;2023-06-26T03:49:59;21.00;99.90
2106;DHT22;1059;52.548;13.408;2023-06-26T03:52:26;21.00;99.90
2106;DHT22;1059;52.548;13.408;2023-06-26T03:54:56;20.90;99.90
2106;DHT22;1059;52.548;13.408;2023-06-26T03:57:23;20.90;99.90
2106;DHT22;1059;52.548;13.408;2023-06-26T03:59:51;20.80;99.90
2106;DHT22;1059;52.548;13.408;2023-06-26T04:02:18;20.80;99.90
2106;DHT22;1059;52.548;13.408;2023-06-26T04:04:45;20.80;99.90
2106;DHT22;1059;52.548;13.408;2023-06-26T04:07:12;20.80;99.90
2106;DHT22;1059;52.548;13.408;2023-06-26T04:09:39;20.90;99.90
2106;DHT22;1059;52.548;13.408;2023-06-26T04:12:06;20.90;99.90
2106;DHT22;1059;52.548;13.408;2023-06-26T04:14:33;20.90;99.90
2106;DHT22;1059;52.548;13.408;2023-06-26T04:17:01;20.90;99.90
2106;DHT22;1059;52.548;13.408;2023-06-26T04:19:29;20.90;99.90
2106;DHT22;1059;52.548;13.408;2023-06-26T04:21:56;21.00;99.90
2106;DHT22;1059;52.548;13.408;2023-06-26T04:24:23;21.10;99.90
2106;DHT22;1059;52.548;13.408;2023-06-26T04:26:50;21.10;99.90
2106;DHT22;1059;52.548;13.408;2023-06-26T04:29:17;21.20;99.90
2106;DHT22;1059;52.548;13.408;2023-06-26T04:31:44;21.20;99.90
2106;DHT22;1059;52.548;13.408;2023-06-26T04:34:13;21.20;99.90
2106;DHT22;1059;52.548;13.408;2023-06-26T04:36:40;21.20;99.90
2106;DHT22;1059;52.548;13.408;2023-06-26T04:39:11;21.30;99.90
2106;DHT22;1059;52.548;13.408;2023-06-26T04:41:40;21.30;99.90
2106;DHT22;1059;52.548;13.408;2023-06-26T04:44:07;21.40;99.90
2106;DHT22;1059;52.548;13.408;2023-06-26T04:46:34;21.40;99.90
2106;DHT22;1059;52.548;13.408;2023-06-26T04:49:01;21.50;99.90
2106;DHT22;1059;52.548;13.408;2023-06-26T04:51:30;21.50;99.90
2106;DHT22;1059;52.548;13.408;2023-06-26T04:53:57;21.50;99.90
2106;DHT22;1059;52.548;13.408;2023-06-26T04:56:23;21.50;99.90
2106;DHT22;1059;52.548;13.408;2023-06-26T04:58:50;21.50;99.90
2106;DHT22;1059;52.548;13.408;2023-06-26T05:01:17;21.60;99.90
2106;DHT22;1059;52.548;13.408;2023-06-26T05:03:44;21.60;99.90
2106;DHT22;1059;52.548;13.408;2023-06-26T05:06:11;21.70;99.90
2106;DHT22;1059;52.548;13.408;2023-06-26T05:08:39;21.80;99.90
2106;DHT22;1059;52.548;13.408;2023-06-26T05:11:08;21.80;99.90
2106;DHT22;1059;52.548;13.408;2023-06-26T05:13:35;21.90;99.90
2106;DHT22;1059;52.548;13.408;2023-06-26T05:16:02;21.90;99.90
2106;DHT22;1059;52.548;13.408;2023-06-26T05:18:29;22.00;99.90
2106;DHT22;1059;52.548;13.408;2023-06-26T05:20:56;22.00;99.90
2106;DHT22;1059;52.548;13.408;2023-06-26T05:23:25;22.10;99.90
2106;DHT22;1059;52.548;13.408;2023-06-26T05:25:54;22.20;99.90
2106;DHT22;1059;52.548;13.408;2023-06-26T05:28:22;22.30;99.90
2106;DHT22;1059;52.548;13.408;2023-06-26T05:30:50;22.30;99.90
2106;DHT22;1059;52.548;13.408;2023-06-26T05:33:18;22.40;99.90
2106;DHT22;1059;52.548;13.408;2023-06-26T05:35:45;22.50;99.90
2106;DHT22;1059;52.548;13.408;2023-06-26T05:38:13;22.50;99.90
2106;DHT22;1059;52.548;13.408;2023-06-26T05:40:41;22.60;99.90
2106;DHT22;1059;52.548;13.408;2023-06-26T05:43:10;22.60;99.90
2106;DHT22;1059;52.548;13.408;2023-06-26T05:45:37;22.60;99.90
2106;DHT22;1059;52.548;13.408;2023-06-26T05:48:04;22.60;99.90
2106;DHT22;1059;52.548;13.408;2023-06-26T05:50:34;22.60;99.90
2106;DHT22;1059;52.548;13.408;2023-06-26T05:53:01;22.60;99.90
2106;DHT22;1059;52.548;13.408;2023-06-26T05:55:32;22.60;99.90
2106;DHT22;1059;52.548;13.408;2023-06-26T05:58:00;22.60;99.90
2106;DHT22;1059;52.548;13.408;2023-06-26T06:00:30;22.60;99.90
2106;DHT22;1059;52.548;13.408;2023-06-26T06:02:57;22.60;99.90
2106;DHT22;1059;52.548;13.408;2023-06-26T06:05:24;22.60;99.90
2106;DHT22;1059;52.548;13.408;2023-06-26T06:07:50;22.60;99.90
2106;DHT22;1059;52.548;13.408;2023-06-26T06:10:17;22.60;99.90
2106;DHT22;1059;52.548;13.408;2023-06-26T06:12:44;22.60;99.90
2106;DHT22;1059;52.548;13.408;2023-06-26T06:15:11;22.70;99.90
2106;DHT22;1059;52.548;13.408;2023-06-26T06:17:39;22.70;99.90
2106;DHT22;1059;52.548;13.408;2023-06-26T06:20:09;22.70;99.90
2106;DHT22;1059;52.548;13.408;2023-06-26T06:22:37;22.80;99.90
2106;DHT22;1059;52.548;13.408;2023-06-26T06:25:04;22.80;99.90
2106;DHT22;1059;52.548;13.408;2023-06-26T06:27:31;22.80;99.90
2106;DHT22;1059;52.548;13.408;2023-06-26T06:29:58;22.90;99.90
2106;DHT22;1059;52.548;13.408;2023-06-26T06:32:24;23.00;99.90
2106;DHT22;1059;52.548;13.408;2023-06-26T06:34:53;23.00;99.90
2106;DHT22;1059;52.548;13.408;2023-06-26T06:37:20;23.20;99.90
2106;DHT22;1059;52.548;13.408;2023-06-26T06:39:49;23.20;99.90
2106;DHT22;1059;52.548;13.408;2023-06-26T06:42:16;23.20;99.90
2106;DHT22;1059;52.548;13.408;2023-06-26T06:44:42;23.30;99.90
2106;DHT22;1059;52.548;13.408;2023-06-26T06:47:09;23.30;99.90
2106;DHT22;1059;52.548;13.408;2023-06-26T06:49:36;23.40;99.90
2106;DHT22;1059;52.548;13.408;2023-06-26T06:52:07;23.50;99.90
2106;DHT22;1059;52.548;13.408;2023-06-26T06:54:51;23.50;99.90
2106;DHT22;1059;52.548;13.408;2023-06-26T06:57:18;23.50;99.90
2106;DHT22;1059;52.548;13.408;2023-06-26T06:59:45;23.60;99.90
2106;DHT22;1059;52.548;13.408;2023-06-26T07:02:12;23.70;99.90
2106;DHT22;1059;52.548;13.408;2023-06-26T07:04:39;23.70;99.90
2106;DHT22;1059;52.548;13.408;2023-06-26T07:07:07;23.80;99.90
2106;DHT22;1059;52.548;13.408;2023-06-26T07:09:35;23.90;99.90
2106;DHT22;1059;52.548;13.408;2023-06-26T07:12:02;24.00;99.90
2106;DHT22;1059;52.548;13.408;2023-06-26T07:14:31;24.00;99.90
2106;DHT22;1059;52.548;13.408;2023-06-26T07:16:58;24.10;99.90
2106;DHT22;1059;52.548;13.408;2023-06-26T07:19:25;24.20;99.90
2106;DHT22;1059;52.548;13.408;2023-06-26T07:21:52;24.30;99.90
2106;DHT22;1059;52.548;13.408;2023-06-26T07:24:20;24.30;99.90
2106;DHT22;1059;52.548;13.408;2023-06-26T07:26:47;24.40;99.90
2106;DHT22;1059;52.548;13.408;2023-06-26T07:29:13;24.50;99.90
2106;DHT22;1059;52.548;13.408;2023-06-26T07:31:40;24.60;99.90
2106;DHT22;1059;52.548;13.408;2023-06-26T07:34:07;24.60;99.90
2106;DHT22;1059;52.548;13.408;2023-06-26T07:36:34;24.70;99.90
2106;DHT22;1059;52.548;13.408;2023-06-26T07:39:01;24.80;99.90
2106;DHT22;1059;52.548;13.408;2023-06-26T07:41:29;24.90;99.90
2106;DHT22;1059;52.548;13.408;2023-06-26T07:43:57;25.00;99.90
2106;DHT22;1059;52.548;13.408;2023-06-26T07:46:24;25.00;99.90
2106;DHT22;1059;52.548;13.408;2023-06-26T07:48:51;25.00;99.90
2106;DHT22;1059;52.548;13.408;2023-06-26T07:51:19;25.00;99.90
2106;DHT22;1059;52.548;13.408;2023-06-26T07:53:46;25.10;99.90
2106;DHT22;1059;52.548;13.408;2023-06-26T07:56:13;25.10;99.90
2106;DHT22;1059;52.548;13.408;2023-06-26T07:58:41;25.20;99.90
2106;DHT22;1059;52.548;13.408;2023-06-26T08:01:08;25.30;99.90
2106;DHT22;1059;52.548;13.408;2023-06-26T08:03:35;25.30;99.90
2106;DHT22;1059;52.548;13.408;2023-06-26T08:06:05;25.40;99.90
2106;DHT22;1059;52.548;13.408;2023-06-26T08:08:32;25.40;99.90
2106;DHT22;1059;52.548;13.408;2023-06-26T08:10:58;25.50;99.90
2106;DHT22;1059;52.548;13.408;2023-06-26T08:13:25;25.60;99.90
2106;DHT22;1059;52.548;13.408;2023-06-26T08:15:54;25.60;99.90
2106;DHT22;1059;52.548;13.408;2023-06-26T08:18:20;25.70;99.90
2106;DHT22;1059;52.548;13.408;2023-06-26T08:20:47;25.80;99.90
2106;DHT22;1059;52.548;13.408;2023-06-26T08:23:14;25.90;99.90
2106;DHT22;1059;52.548;13.408;2023-06-26T08:25:41;26.00;99.90
2106;DHT22;1059;52.548;13.408;2023-06-26T08:28:08;26.00;99.90
2106;DHT22;1059;52.548;13.408;2023-06-26T08:30:35;26.10;99.90
2106;DHT22;1059;52.548;13.408;2023-06-26T08:33:04;26.10;99.90
2106;DHT22;1059;52.548;13.408;2023-06-26T08:35:31;26.20;99.90
2106;DHT22;1059;52.548;13.408;2023-06-26T08:37:57;26.20;99.90
2106;DHT22;1059;52.548;13.408;2023-06-26T08:40:25;26.30;99.90
2106;DHT22;1059;52.548;13.408;2023-06-26T08:42:53;26.40;99.90
2106;DHT22;1059;52.548;13.408;2023-06-26T08:45:20;26.40;99.90
2106;DHT22;1059;52.548;13.408;2023-06-26T08:47:49;26.40;99.90
2106;DHT22;1059;52.548;13.408;2023-06-26T08:50:23;26.40;99.90
2106;DHT22;1059;52.548;13.408;2023-06-26T08:52:54;26.40;99.90
2106;DHT22;1059;52.548;13.408;2023-06-26T08:55:23;26.40;99.90
2106;DHT22;1059;52.548;13.408;2023-06-26T08:57:52;26.50;99.90
2106;DHT22;1059;52.548;13.408;2023-06-26T09:00:20;26.60;99.90
2106;DHT22;1059;52.548;13.408;2023-06-26T09:02:47;26.70;99.90
2106;DHT22;1059;52.548;13.408;2023-06-26T09:05:15;26.70;99.90
2106;DHT22;1059;52.548;13.408;2023-06-26T09:07:43;26.80;99.90
2106;DHT22;1059;52.548;13.408;2023-06-26T09:10:10;26.80;99.90
2106;DHT22;1059;52.548;13.408;2023-06-26T09:12:37;26.90;99.90
2106;DHT22;1059;52.548;13.408;2023-06-26T09:15:05;26.90;99.90
2106;DHT22;1059;52.548;13.408;2023-06-26T09:17:38;27.00;99.90
2106;DHT22;1059;52.548;13.408;2023-06-26T09:20:05;27.00;99.90
2106;DHT22;1059;52.548;13.408;2023-06-26T09:22:35;27.00;99.90
2106;DHT22;1059;52.548;13.408;2023-06-26T09:25:06;27.00;99.90
2106;DHT22;1059;52.548;13.408;2023-06-26T09:27:38;27.10;99.90
2106;DHT22;1059;52.548;13.408;2023-06-26T09:30:06;27.20;99.90
2106;DHT22;1059;52.548;13.408;2023-06-26T09:32:34;27.20;99.90
2106;DHT22;1059;52.548;13.408;2023-06-26T09:35:02;27.20;99.90
2106;DHT22;1059;52.548;13.408;2023-06-26T09:37:30;27.30;99.90
2106;DHT22;1059;52.548;13.408;2023-06-26T09:39:56;27.30;99.90
2106;DHT22;1059;52.548;13.408;2023-06-26T09:42:25;27.30;99.90
2106;DHT22;1059;52.548;13.408;2023-06-26T09:44:53;27.40;99.90
2106;DHT22;1059;52.548;13.408;2023-06-26T09:47:21;27.50;99.90
2106;DHT22;1059;52.548;13.408;2023-06-26T09:49:48;27.50;99.90
2106;DHT22;1059;52.548;13.408;2023-06-26T09:52:16;27.50;99.90
2106;DHT22;1059;52.548;13.408;2023-06-26T09:54:44;27.60;99.90
2106;DHT22;1059;52.548;13.408;2023-06-26T09:57:15;27.60;99.90
2106;DHT22;1059;52.548;13.408;2023-06-26T09:59:44;27.70;99.60
2106;DHT22;1059;52.548;13.408;2023-06-26T10:02:12;27.80;99.80
2106;DHT22;1059;52.548;13.408;2023-06-26T10:04:38;27.80;99.90
2106;DHT22;1059;52.548;13.408;2023-06-26T10:07:07;27.90;99.90
2106;DHT22;1059;52.548;13.408;2023-06-26T10:09:36;27.90;97.00
2106;DHT22;1059;52.548;13.408;2023-06-26T10:12:08;27.90;96.30
2106;DHT22;1059;52.548;13.408;2023-06-26T10:14:37;28.00;96.00
2106;DHT22;1059;52.548;13.408;2023-06-26T10:17:10;28.00;96.80
2106;DHT22;1059;52.548;13.408;2023-06-26T10:19:41;28.10;96.40
2106;DHT22;1059;52.548;13.408;2023-06-26T10:22:09;28.20;97.50
2106;DHT22;1059;52.548;13.408;2023-06-26T10:24:40;28.20;95.50
2106;DHT22;1059;52.548;13.408;2023-06-26T10:27:13;28.30;94.90
2106;DHT22;1059;52.548;13.408;2023-06-26T10:29:41;28.30;94.50
2106;DHT22;1059;52.548;13.408;2023-06-26T10:32:12;28.30;93.80
2106;DHT22;1059;52.548;13.408;2023-06-26T10:34:40;28.40;94.20
2106;DHT22;1059;52.548;13.408;2023-06-26T10:37:07;28.50;94.30
2106;DHT22;1059;52.548;13.408;2023-06-26T10:39:47;28.50;93.50
2106;DHT22;1059;52.548;13.408;2023-06-26T10:42:15;28.50;91.80
2106;DHT22;1059;52.548;13.408;2023-06-26T10:44:43;28.50;93.00
2106;DHT22;1059;52.548;13.408;2023-06-26T10:47:12;28.50;93.00
2106;DHT22;1059;52.548;13.408;2023-06-26T10:49:55;28.60;92.00
2106;DHT22;1059;52.548;13.408;2023-06-26T10:52:21;28.70;92.50
2106;DHT22;1059;52.548;13.408;2023-06-26T10:54:54;28.80;90.50
2106;DHT22;1059;52.548;13.408;2023-06-26T10:57:25;28.90;91.00
2106;DHT22;1059;52.548;13.408;2023-06-26T11:00:10;28.90;90.40
2106;DHT22;1059;52.548;13.408;2023-06-26T11:02:49;29.00;89.10
2106;DHT22;1059;52.548;13.408;2023-06-26T11:05:26;29.00;90.60
2106;DHT22;1059;52.548;13.408;2023-06-26T11:08:03;29.20;89.90
2106;DHT22;1059;52.548;13.408;2023-06-26T11:10:48;29.30;90.00
2106;DHT22;1059;52.548;13.408;2023-06-26T11:13:21;29.50;89.30
2106;DHT22;1059;52.548;13.408;2023-06-26T11:15:49;29.50;88.10
2106;DHT22;1059;52.548;13.408;2023-06-26T11:18:18;29.60;88.90
2106;DHT22;1059;52.548;13.408;2023-06-26T11:20:45;29.70;88.20
2106;DHT22;1059;52.548;13.408;2023-06-26T11:23:13;29.90;86.70
2106;DHT22;1059;52.548;13.408;2023-06-26T11:25:40;30.30;85.70
2106;DHT22;1059;52.548;13.408;2023-06-26T11:28:09;30.70;85.00
2106;DHT22;1059;52.548;13.408;2023-06-26T11:30:37;31.50;81.90
2106;DHT22;1059;52.548;13.408;2023-06-26T11:33:05;32.20;72.40
2106;DHT22;1059;52.548;13.408;2023-06-26T11:35:35;33.00;66.10
2106;DHT22;1059;52.548;13.408;2023-06-26T11:38:03;33.70;61.50
2106;DHT22;1059;52.548;13.408;2023-06-26T11:40:32;34.10;58.30
2106;DHT22;1059;52.548;13.408;2023-06-26T11:43:00;33.80;55.30
2106;DHT22;1059;52.548;13.408;2023-06-26T11:45:29;33.60;55.60
2106;DHT22;1059;52.548;13.408;2023-06-26T11:47:56;34.00;53.50
2106;DHT22;1059;52.548;13.408;2023-06-26T11:50:27;34.60;53.40
2106;DHT22;1059;52.548;13.408;2023-06-26T11:52:56;34.90;48.50
2106;DHT22;1059;52.548;13.408;2023-06-26T11:55:23;34.90;47.60
2106;DHT22;1059;52.548;13.408;2023-06-26T11:57:53;34.90;46.40
2106;DHT22;1059;52.548;13.408;2023-06-26T12:00:21;35.30;44.80
2106;DHT22;1059;52.548;13.408;2023-06-26T12:02:49;35.60;43.20
2106;DHT22;1059;52.548;13.408;2023-06-26T12:05:17;35.70;42.00
2106;DHT22;1059;52.548;13.408;2023-06-26T12:07:47;35.90;41.10
2106;DHT22;1059;52.548;13.408;2023-06-26T12:10:16;36.10;39.80
2106;DHT22;1059;52.548;13.408;2023-06-26T12:12:43;36.30;39.90
2106;DHT22;1059;52.548;13.408;2023-06-26T12:15:14;36.30;37.30
2106;DHT22;1059;52.548;13.408;2023-06-26T12:17:41;36.40;37.20
2106;DHT22;1059;52.548;13.408;2023-06-26T12:20:17;36.60;37.10
2106;DHT22;1059;52.548;13.408;2023-06-26T12:22:46;36.70;36.00
2106;DHT22;1059;52.548;13.408;2023-06-26T12:25:20;36.20;35.90
2106;DHT22;1059;52.548;13.408;2023-06-26T12:27:48;35.90;36.20
2106;DHT22;1059;52.548;13.408;2023-06-26T12:30:15;36.30;35.90
2106;DHT22;1059;52.548;13.408;2023-06-26T12:32:44;36.50;35.00
2106;DHT22;1059;52.548;13.408;2023-06-26T12:35:12;36.10;33.40
2106;DHT22;1059;52.548;13.408;2023-06-26T12:37:39;35.40;34.20
2106;DHT22;1059;52.548;13.408;2023-06-26T12:40:18;35.70;35.80
2106;DHT22;1059;52.548;13.408;2023-06-26T12:42:47;36.20;34.30
2106;DHT22;1059;52.548;13.408;2023-06-26T12:45:15;36.30;33.90
2106;DHT22;1059;52.548;13.408;2023-06-26T12:47:45;36.20;34.20
2106;DHT22;1059;52.548;13.408;2023-06-26T12:50:12;36.10;33.40
2106;DHT22;1059;52.548;13.408;2023-06-26T12:52:39;36.30;32.40
2106;DHT22;1059;52.548;13.408;2023-06-26T12:55:06;36.60;33.90
2106;DHT22;1059;52.548;13.408;2023-06-26T12:57:37;36.90;32.00
2106;DHT22;1059;52.548;13.408;2023-06-26T13:00:05;36.30;31.40
2106;DHT22;1059;52.548;13.408;2023-06-26T13:02:32;35.70;31.10
2106;DHT22;1059;52.548;13.408;2023-06-26T13:04:59;35.00;33.10
2106;DHT22;1059;52.548;13.408;2023-06-26T13:07:26;34.50;34.40
2106;DHT22;1059;52.548;13.408;2023-06-26T13:09:53;34.20;35.30
2106;DHT22;1059;52.548;13.408;2023-06-26T13:12:21;33.80;36.40
2106;DHT22;1059;52.548;13.408;2023-06-26T13:14:49;33.40;37.20
2106;DHT22;1059;52.548;13.408;2023-06-26T13:17:16;33.10;38.10
2106;DHT22;1059;52.548;13.408;2023-06-26T13:19:43;32.50;38.30
2106;DHT22;1059;52.548;13.408;2023-06-26T13:22:10;31.90;39.10
2106;DHT22;1059;52.548;13.408;2023-06-26T13:24:37;31.50;40.60
2106;DHT22;1059;52.548;13.408;2023-06-26T13:27:05;31.20;41.60
2106;DHT22;1059;52.548;13.408;2023-06-26T13:29:32;31.00;42.00
2106;DHT22;1059;52.548;13.408;2023-06-26T13:32:00;30.80;42.00
2106;DHT22;1059;52.548;13.408;2023-06-26T13:34:27;30.60;42.80
2106;DHT22;1059;52.548;13.408;2023-06-26T13:36:55;30.50;42.90
2106;DHT22;1059;52.548;13.408;2023-06-26T13:39:22;30.40;43.20
2106;DHT22;1059;52.548;13.408;2023-06-26T13:41:49;30.20;44.30
2106;DHT22;1059;52.548;13.408;2023-06-26T13:44:16;30.10;45.10
2106;DHT22;1059;52.548;13.408;2023-06-26T13:46:43;30.00;45.40
2106;DHT22;1059;52.548;13.408;2023-06-26T13:49:11;30.00;45.90
2106;DHT22;1059;52.548;13.408;2023-06-26T13:51:38;30.00;45.80
2106;DHT22;1059;52.548;13.408;2023-06-26T13:54:11;30.00;46.30
2106;DHT22;1059;52.548;13.408;2023-06-26T13:56:37;30.00;46.60
2106;DHT22;1059;52.548;13.408;2023-06-26T13:59:04;29.90;46.40
2106;DHT22;1059;52.548;13.408;2023-06-26T14:01:31;29.90;47.30
2106;DHT22;1059;52.548;13.408;2023-06-26T14:03:58;29.90;48.20
2106;DHT22;1059;52.548;13.408;2023-06-26T14:06:26;29.90;47.40
2106;DHT22;1059;52.548;13.408;2023-06-26T14:08:53;29.90;47.20
2106;DHT22;1059;52.548;13.408;2023-06-26T14:11:21;29.90;48.30
2106;DHT22;1059;52.548;13.408;2023-06-26T14:13:48;29.90;48.50
2106;DHT22;1059;52.548;13.408;2023-06-26T14:16:15;29.80;48.10
2106;DHT22;1059;52.548;13.408;2023-06-26T14:18:44;29.80;47.90
2106;DHT22;1059;52.548;13.408;2023-06-26T14:21:11;28.10;56.50
2106;DHT22;1059;52.548;13.408;2023-06-26T14:23:39;27.70;67.60
2106;DHT22;1059;52.548;13.408;2023-06-26T14:26:06;27.40;91.70
2106;DHT22;1059;52.548;13.408;2023-06-26T14:28:33;25.20;99.90
2106;DHT22;1059;52.548;13.408;2023-06-26T14:31:00;22.60;99.90
2106;DHT22;1059;52.548;13.408;2023-06-26T14:33:30;21.50;99.90
2106;DHT22;1059;52.548;13.408;2023-06-26T14:35:59;21.00;99.90
2106;DHT22;1059;52.548;13.408;2023-06-26T14:38:27;20.50;99.90
2106;DHT22;1059;52.548;13.408;2023-06-26T14:40:55;20.20;99.90
2106;DHT22;1059;52.548;13.408;2023-06-26T14:43:22;19.90;99.90
2106;DHT22;1059;52.548;13.408;2023-06-26T14:45:50;19.70;99.90
2106;DHT22;1059;52.548;13.408;2023-06-26T14:48:17;19.50;99.90
2106;DHT22;1059;52.548;13.408;2023-06-26T14:50:44;19.60;99.90
2106;DHT22;1059;52.548;13.408;2023-06-26T14:53:11;19.60;99.90
2106;DHT22;1059;52.548;13.408;2023-06-26T14:55:38;19.60;99.90
2106;DHT22;1059;52.548;13.408;2023-06-26T14:58:07;19.70;99.90
2106;DHT22;1059;52.548;13.408;2023-06-26T15:00:33;19.70;99.90
2106;DHT22;1059;52.548;13.408;2023-06-26T15:03:00;19.80;99.90
2106;DHT22;1059;52.548;13.408;2023-06-26T15:05:27;19.90;99.90
2106;DHT22;1059;52.548;13.408;2023-06-26T15:07:54;20.00;99.90
2106;DHT22;1059;52.548;13.408;2023-06-26T15:10:21;20.00;99.90
2106;DHT22;1059;52.548;13.408;2023-06-26T15:12:48;20.00;99.90
2106;DHT22;1059;52.548;13.408;2023-06-26T15:15:17;20.00;99.90
2106;DHT22;1059;52.548;13.408;2023-06-26T15:17:44;19.90;99.90
2106;DHT22;1059;52.548;13.408;2023-06-26T15:20:11;19.80;99.90
2106;DHT22;1059;52.548;13.408;2023-06-26T15:22:38;19.70;99.90
2106;DHT22;1059;52.548;13.408;2023-06-26T15:25:08;19.70;99.90
2106;DHT22;1059;52.548;13.408;2023-06-26T15:27:34;19.60;99.90
2106;DHT22;1059;52.548;13.408;2023-06-26T15:30:02;19.60;99.90
2106;DHT22;1059;52.548;13.408;2023-06-26T15:32:30;19.50;99.90
2106;DHT22;1059;52.548;13.408;2023-06-26T15:34:56;19.50;99.90
2106;DHT22;1059;52.548;13.408;2023-06-26T15:37:23;19.70;99.90
2106;DHT22;1059;52.548;13.408;2023-06-26T15:39:49;19.80;99.90
2106;DHT22;1059;52.548;13.408;2023-06-26T15:42:16;19.80;99.90
2106;DHT22;1059;52.548;13.408;2023-06-26T15:44:43;19.80;99.90
2106;DHT22;1059;52.548;13.408;2023-06-26T15:47:10;19.80;99.90
2106;DHT22;1059;52.548;13.408;2023-06-26T15:49:38;19.70;99.90